CheckWX is a tool to help pilots better visualize weather data.  It is not intended as a substitute for an official pre-flight weather briefing.

17:28:40 UTC

CYPW METAR
Powell River Airport
Powell River, Canada
Current

29 mins ago

CYPW 241700Z 28005KT 20SM FEW012 FEW220 FEW250 07/05 A3020 RMK SF1CS1CI1 SF TR SLP232
Observed
Mar-24 @ 17:00 UTC
Wind
  • 280° at 5 KTS
Visibility
20 SM
Flight Rules
VFR
Cloud Levels
  • Few at 1,200' AGL
  • Few at 22,000' AGL
  • Few at 25,000' AGL
Temperature
C / 45°F
Dewpoint
C / 41°F
Humidity
87%
Altimeter
30.2" Hg
Pressure
1023.2 hPa
Previous

1 hour ago

CYPW 241600Z 00000KT 20SM FEW015 FEW170 FEW220 FEW250 03/03 A3020 RMK ST1AC1CS2CI1 ST TR AC TR CI TR HALO SLP233
Observed
Mar-24 @ 16:00 UTC
Visibility
20 SM
Flight Rules
VFR
Cloud Levels
  • Few at 1,500' AGL
  • Few at 17,000' AGL
  • Few at 22,000' AGL
  • Few at 25,000' AGL
Temperature
C / 37°F
Dewpoint
C / 37°F
Humidity
100%
Altimeter
30.2" Hg
Pressure
1023.3 hPa
Previous

2 hours ago

CYPW 241500Z 00000KT 20SM FEW025 SCT180 BKN220 BKN250 01/01 A3020 RMK SC1AC3CS2CI1 SC TR HALO SLP232
Observed
Mar-24 @ 15:00 UTC
Visibility
20 SM
Flight Rules
VFR
Cloud Levels
  • Few at 2,500' AGL
  • Scattered at 18,000' AGL
  • Broken at 22,000' AGL
  • Broken at 25,000' AGL
Temperature
C / 34°F
Dewpoint
C / 34°F
Humidity
100%
Altimeter
30.2" Hg
Pressure
1023.2 hPa